createdAt,value
2017-05-17T00:00:25.451Z,16.32
2017-05-17T00:01:37.998Z,16.28
2017-05-17T00:02:50.567Z,16.28
2017-05-17T00:04:03.126Z,16.34
2017-05-17T00:05:15.354Z,16.25
2017-05-17T00:06:27.572Z,16.31
2017-05-17T00:07:40.080Z,16.26
2017-05-17T00:08:52.918Z,16.28
2017-05-17T00:10:05.459Z,16.24
2017-05-17T00:11:17.977Z,16.26
2017-05-17T00:12:30.529Z,16.21
2017-05-17T00:13:43.080Z,16.26
2017-05-17T00:14:55.668Z,16.26
2017-05-17T00:16:08.217Z,16.18
2017-05-17T00:17:20.464Z,16.22
2017-05-17T00:18:33.010Z,16.18
2017-05-17T00:19:45.850Z,16.18
2017-05-17T00:20:58.420Z,16.22
2017-05-17T00:22:10.940Z,16.16
2017-05-17T00:23:23.485Z,16.21
2017-05-17T00:24:36.035Z,16.18
2017-05-17T00:25:48.561Z,16.18
2017-05-17T00:27:01.098Z,16.17
2017-05-17T00:28:13.645Z,16.16
2017-05-17T00:29:25.873Z,16.21
2017-05-17T00:30:38.736Z,16.1
2017-05-17T00:31:51.257Z,16.1
2017-05-17T00:33:03.807Z,16.16
2017-05-17T00:34:16.358Z,16.17
2017-05-17T00:35:28.882Z,16.16
2017-05-17T00:36:41.423Z,16.06
2017-05-17T00:37:53.666Z,16.05
2017-05-17T00:39:06.190Z,16.06
2017-05-17T00:40:18.432Z,16
2017-05-17T00:41:30.977Z,16.06
2017-05-17T00:42:43.521Z,16.02
2017-05-17T00:43:56.069Z,16.03
2017-05-17T00:45:08.587Z,15.91
2017-05-17T00:46:21.112Z,15.96
2017-05-17T00:47:33.657Z,15.94
2017-05-17T00:48:46.211Z,15.96
2017-05-17T00:49:58.750Z,15.85
2017-05-17T00:51:10.976Z,15.92
2017-05-17T00:52:23.216Z,15.9
2017-05-17T00:53:35.741Z,15.92
2017-05-17T00:54:48.262Z,15.96
2017-05-17T00:56:00.854Z,15.83
2017-05-17T00:57:13.104Z,15.92
2017-05-17T00:58:25.644Z,15.9
2017-05-17T00:59:38.168Z,15.83
2017-05-17T01:00:50.692Z,15.88
2017-05-17T01:02:02.913Z,15.87
2017-05-17T01:03:15.154Z,15.84
2017-05-17T01:04:27.722Z,15.87
2017-05-17T01:05:40.269Z,15.84
2017-05-17T01:06:52.817Z,15.81
2017-05-17T01:08:05.362Z,15.83
2017-05-17T01:09:17.680Z,15.85
2017-05-17T01:10:29.928Z,15.84
2017-05-17T01:11:42.484Z,15.87
2017-05-17T01:12:55.043Z,15.85
2017-05-17T01:14:07.277Z,15.84
2017-05-17T01:15:19.813Z,15.73
2017-05-17T01:16:32.338Z,15.84
2017-05-17T01:17:44.278Z,15.87
2017-05-17T01:18:56.824Z,15.87
2017-05-17T01:20:09.374Z,15.83
2017-05-17T01:21:21.917Z,15.76
2017-05-17T01:22:34.444Z,15.78
2017-05-17T01:23:47.014Z,15.83
2017-05-17T01:24:59.237Z,15.81
2017-05-17T01:26:11.480Z,15.78
2017-05-17T01:27:24.020Z,15.84
2017-05-17T01:28:36.599Z,15.76
2017-05-17T01:29:49.143Z,15.78
2017-05-17T01:31:01.668Z,15.76
2017-05-17T01:32:13.891Z,15.73
2017-05-17T01:33:26.452Z,15.83
2017-05-17T01:34:38.994Z,15.78
2017-05-17T01:35:51.248Z,15.76
2017-05-17T01:37:03.811Z,15.66
2017-05-17T01:38:16.361Z,15.66
2017-05-17T01:39:28.566Z,15.65
2017-05-17T01:40:41.139Z,15.7
2017-05-17T01:41:53.682Z,15.69
2017-05-17T01:43:05.926Z,15.66
2017-05-17T01:44:18.187Z,15.67
2017-05-17T01:45:30.723Z,15.67
2017-05-17T01:46:43.279Z,15.69
2017-05-17T01:47:55.808Z,15.69
2017-05-17T01:49:08.355Z,15.69
2017-05-17T01:50:20.574Z,15.67
2017-05-17T01:51:33.095Z,15.69
2017-05-17T01:52:45.622Z,15.7
2017-05-17T01:53:58.191Z,15.7
2017-05-17T01:55:10.737Z,15.66
2017-05-17T01:56:23.279Z,15.69
2017-05-17T01:57:36.144Z,15.66
2017-05-17T01:58:48.695Z,15.62
2017-05-17T02:00:01.216Z,15.67
2017-05-17T02:01:13.433Z,15.63
2017-05-17T02:02:25.958Z,15.65
2017-05-17T02:03:38.482Z,15.7
2017-05-17T02:04:51.054Z,15.63
2017-05-17T02:06:03.624Z,15.63
2017-05-17T02:07:16.167Z,15.63
2017-05-17T02:08:28.933Z,15.59
2017-05-17T02:09:41.454Z,15.62
2017-05-17T02:10:53.679Z,15.6
2017-05-17T02:12:06.231Z,15.69
2017-05-17T02:13:18.772Z,15.69
2017-05-17T02:14:31.296Z,15.62
2017-05-17T02:15:43.864Z,15.57
2017-05-17T02:16:56.405Z,15.54
2017-05-17T02:18:08.351Z,15.54
2017-05-17T02:19:21.195Z,15.59
2017-05-17T02:20:33.714Z,15.59
2017-05-17T02:21:46.288Z,15.52
2017-05-17T02:22:58.838Z,15.48
2017-05-17T02:24:11.388Z,15.51
2017-05-17T02:25:24.198Z,15.47
2017-05-17T02:26:36.744Z,15.5
2017-05-17T02:27:49.301Z,15.51
2017-05-17T02:29:01.835Z,15.43
2017-05-17T02:30:14.084Z,15.44
2017-05-17T02:31:26.610Z,15.39
2017-05-17T02:32:39.155Z,15.36
2017-05-17T02:33:51.693Z,15.41
2017-05-17T02:35:04.227Z,15.33
2017-05-17T02:36:16.822Z,15.3
2017-05-17T02:37:29.360Z,15.27
2017-05-17T02:38:41.586Z,15.32
2017-05-17T02:39:54.092Z,15.27
2017-05-17T02:41:06.920Z,15.22
2017-05-17T02:42:19.468Z,15.19
2017-05-17T02:43:31.699Z,15.14
2017-05-17T02:44:44.240Z,15.08
2017-05-17T02:45:56.783Z,15.11
2017-05-17T02:47:09.307Z,15.15
2017-05-17T02:48:21.846Z,15.07
2017-05-17T02:49:34.395Z,15.08
2017-05-17T02:50:46.674Z,14.96
2017-05-17T02:51:58.870Z,15.02
2017-05-17T02:53:11.387Z,15.04
2017-05-17T02:54:23.932Z,14.93
2017-05-17T02:55:36.446Z,14.94
2017-05-17T02:56:48.696Z,14.93
2017-05-17T02:58:00.912Z,14.94
2017-05-17T02:59:13.462Z,14.94
2017-05-17T03:00:26.005Z,14.82
2017-05-17T03:01:38.556Z,14.85
2017-05-17T03:02:50.828Z,14.81
2017-05-17T03:04:03.353Z,14.81
2017-05-17T03:05:15.624Z,14.78
2017-05-17T03:06:27.866Z,14.87
2017-05-17T03:07:40.362Z,14.73
2017-05-17T03:08:53.242Z,14.74
2017-05-17T03:10:05.508Z,14.81
2017-05-17T03:11:17.771Z,14.81
2017-05-17T03:12:30.013Z,14.77
2017-05-17T03:13:42.270Z,14.78
2017-05-17T03:14:54.832Z,14.82
2017-05-17T03:16:07.379Z,14.78
2017-05-17T03:17:19.597Z,14.78
2017-05-17T03:18:32.133Z,14.78
2017-05-17T03:19:44.651Z,14.74
2017-05-17T03:20:57.210Z,14.74
2017-05-17T03:22:09.717Z,14.77
2017-05-17T03:23:21.651Z,14.74
2017-05-17T03:24:34.476Z,14.67
2017-05-17T03:25:46.705Z,14.63
2017-05-17T03:26:59.239Z,14.63
2017-05-17T03:28:11.171Z,14.61
2017-05-17T03:29:23.718Z,14.67
2017-05-17T03:30:36.277Z,14.67
2017-05-17T03:31:48.810Z,14.66
2017-05-17T03:33:01.369Z,14.63
2017-05-17T03:34:13.922Z,14.59
2017-05-17T03:35:26.169Z,14.51
2017-05-17T03:36:38.688Z,14.61
2017-05-17T03:37:50.929Z,14.61
2017-05-17T03:39:03.481Z,14.53
2017-05-17T03:40:16.043Z,14.63
2017-05-17T03:41:27.973Z,14.58
2017-05-17T03:42:40.511Z,14.53
2017-05-17T03:43:53.039Z,14.58
2017-05-17T03:45:05.289Z,14.52
2017-05-17T03:46:17.856Z,14.59
2017-05-17T03:47:30.394Z,14.51
2017-05-17T03:48:42.916Z,14.53
2017-05-17T03:49:55.436Z,14.61
2017-05-17T03:51:07.967Z,14.62
2017-05-17T03:52:20.496Z,14.55
2017-05-17T03:53:32.753Z,14.55
2017-05-17T03:54:45.284Z,14.56
2017-05-17T03:55:57.516Z,14.53
2017-05-17T03:57:10.048Z,14.53
2017-05-17T03:58:22.295Z,14.63
2017-05-17T03:59:34.841Z,14.66
2017-05-17T04:00:47.074Z,14.61
2017-05-17T04:01:59.631Z,14.66
2017-05-17T04:03:12.180Z,14.67
2017-05-17T04:04:24.441Z,14.73
2017-05-17T04:05:36.987Z,14.77
2017-05-17T04:06:49.516Z,14.78
2017-05-17T04:08:02.053Z,14.78
2017-05-17T04:09:14.571Z,14.92
2017-05-17T04:10:27.116Z,14.87
2017-05-17T04:11:39.038Z,14.92
2017-05-17T04:12:51.547Z,14.96
2017-05-17T04:14:04.084Z,15
2017-05-17T04:15:16.333Z,15.02
2017-05-17T04:16:28.575Z,15.05
2017-05-17T04:17:41.104Z,15.12
2017-05-17T04:18:53.967Z,15.07
2017-05-17T04:20:06.521Z,15.15
2017-05-17T04:21:18.755Z,15.25
2017-05-17T04:22:31.284Z,15.26
2017-05-17T04:23:43.827Z,15.32
2017-05-17T04:24:56.046Z,15.33
2017-05-17T04:26:08.316Z,15.44
2017-05-17T04:27:19.934Z,15.39
2017-05-17T04:28:32.483Z,15.5
2017-05-17T04:29:44.430Z,15.51
2017-05-17T04:30:57.001Z,15.57
2017-05-17T04:32:09.557Z,15.66
2017-05-17T04:33:21.814Z,15.73
2017-05-17T04:34:34.343Z,15.73
2017-05-17T04:35:46.581Z,15.75
2017-05-17T04:36:59.128Z,15.92
2017-05-17T04:38:11.659Z,15.92
2017-05-17T04:39:24.195Z,16.03
2017-05-17T04:40:36.743Z,16.02
2017-05-17T04:41:48.968Z,16.08
2017-05-17T04:43:01.509Z,16.22
2017-05-17T04:44:13.753Z,16.22
2017-05-17T04:45:26.301Z,16.36
2017-05-17T04:46:38.847Z,16.39
2017-05-17T04:47:51.376Z,16.4
2017-05-17T04:49:03.953Z,16.46
2017-05-17T04:50:16.495Z,16.59
2017-05-17T04:51:29.056Z,16.59
2017-05-17T04:52:41.609Z,16.69
2017-05-17T04:53:54.131Z,16.69
2017-05-17T04:55:06.673Z,16.86
2017-05-17T04:56:19.218Z,16.97
2017-05-17T04:57:31.446Z,16.95
2017-05-17T04:58:43.986Z,17.01
2017-05-17T04:59:56.506Z,17.04
2017-05-17T05:01:08.709Z,17.13
2017-05-17T05:02:21.251Z,17.23
2017-05-17T05:03:33.816Z,17.3
2017-05-17T05:04:46.331Z,17.32
2017-05-17T05:05:58.262Z,17.39
2017-05-17T05:07:10.203Z,17.42
2017-05-17T05:08:22.771Z,17.56
2017-05-17T05:09:35.299Z,17.59
2017-05-17T05:10:47.837Z,17.53
2017-05-17T05:12:00.091Z,17.59
2017-05-17T05:13:12.330Z,17.56
2017-05-17T05:14:24.850Z,17.65
2017-05-17T05:15:37.121Z,17.66
2017-05-17T05:16:49.674Z,17.69
2017-05-17T05:18:01.913Z,17.73
2017-05-17T05:19:14.460Z,17.78
2017-05-17T05:20:27.015Z,17.79
2017-05-17T05:21:39.559Z,17.88
2017-05-17T05:22:52.101Z,17.9
2017-05-17T05:24:04.650Z,17.94
2017-05-17T05:25:16.592Z,17.94
2017-05-17T05:26:29.109Z,17.9
2017-05-17T05:27:41.639Z,17.87
2017-05-17T05:28:54.159Z,17.88
2017-05-17T05:30:06.679Z,17.94
2017-05-17T05:31:18.921Z,17.97
2017-05-17T05:32:31.449Z,17.91
2017-05-17T05:33:44.013Z,17.98
2017-05-17T05:34:56.540Z,18.02
2017-05-17T05:36:09.059Z,18.05
2017-05-17T05:37:20.981Z,18
2017-05-17T05:38:33.523Z,18.11
2017-05-17T05:39:46.097Z,18.19
2017-05-17T05:40:58.347Z,18.08
2017-05-17T05:42:10.910Z,18.18
2017-05-17T05:43:23.164Z,18.27
2017-05-17T05:44:35.397Z,18.33
2017-05-17T05:45:48.248Z,18.26
2017-05-17T05:47:00.800Z,18.26
2017-05-17T05:48:13.386Z,18.27
2017-05-17T05:49:25.606Z,18.27
2017-05-17T05:50:37.862Z,18.36
2017-05-17T05:51:50.406Z,18.39
2017-05-17T05:53:02.644Z,18.34
2017-05-17T05:54:15.194Z,18.36
2017-05-17T05:55:27.722Z,18.41
2017-05-17T05:56:39.941Z,18.46
2017-05-17T05:57:52.461Z,18.41
2017-05-17T05:59:05.026Z,18.51
2017-05-17T06:00:16.681Z,18.52
2017-05-17T06:01:29.302Z,18.55
2017-05-17T06:02:41.874Z,18.6
2017-05-17T06:03:54.440Z,18.67
2017-05-17T06:05:06.678Z,18.64
2017-05-17T06:06:18.612Z,18.57
2017-05-17T06:07:31.130Z,18.66
2017-05-17T06:08:43.041Z,18.73
2017-05-17T06:09:55.569Z,18.74
2017-05-17T06:11:07.815Z,18.85
2017-05-17T06:12:20.029Z,18.86
2017-05-17T06:13:32.562Z,18.91
2017-05-17T06:14:44.821Z,18.98
2017-05-17T06:15:57.367Z,19.05
2017-05-17T06:17:09.921Z,19.17
2017-05-17T06:18:22.769Z,19.24
2017-05-17T06:19:35.333Z,19.37
2017-05-17T06:20:47.885Z,19.6
2017-05-17T06:22:00.407Z,19.77
2017-05-17T06:23:12.649Z,19.78
2017-05-17T06:24:24.924Z,19.92
2017-05-17T06:25:36.842Z,20.02
2017-05-17T06:26:49.387Z,20.19
2017-05-17T06:28:01.662Z,20.49
2017-05-17T06:29:13.607Z,20.6
2017-05-17T06:30:26.131Z,20.86
2017-05-17T06:31:38.675Z,21.23
2017-05-17T06:32:51.192Z,21.48
2017-05-17T06:34:03.734Z,21.83
2017-05-17T06:35:15.984Z,22.1
2017-05-17T06:36:28.224Z,22.49
2017-05-17T06:37:40.754Z,22.71
2017-05-17T06:38:53.317Z,23.02
2017-05-17T06:40:06.162Z,23.45
2017-05-17T06:41:17.814Z,23.77
2017-05-17T06:42:30.360Z,24.1
2017-05-17T06:43:42.902Z,24.32
2017-05-17T06:44:55.455Z,24.74
2017-05-17T06:46:08.025Z,25
2017-05-17T06:47:19.988Z,25.25
2017-05-17T06:48:32.567Z,25.41
2017-05-17T06:49:45.135Z,25.63
2017-05-17T06:50:57.406Z,25.88
2017-05-17T06:52:09.370Z,26.07
2017-05-17T06:53:21.640Z,26.27
2017-05-17T06:54:34.197Z,26.52
2017-05-17T06:55:46.441Z,26.79
2017-05-17T06:56:58.986Z,27.03
2017-05-17T06:58:11.233Z,27.26
2017-05-17T06:59:23.480Z,27.37
2017-05-17T07:00:36.048Z,27.6
2017-05-17T07:01:48.600Z,27.76
2017-05-17T07:03:00.860Z,27.85
2017-05-17T07:04:13.111Z,28.13
2017-05-17T07:05:25.653Z,28.28
2017-05-17T07:06:37.936Z,28.34
2017-05-17T07:07:50.528Z,28.55
2017-05-17T07:09:03.111Z,28.62
2017-05-17T07:10:15.344Z,28.77
2017-05-17T07:11:27.603Z,28.83
2017-05-17T07:12:39.884Z,28.89
2017-05-17T07:13:52.420Z,29
2017-05-17T07:15:04.977Z,29.05
2017-05-17T07:16:17.517Z,29.34
2017-05-17T07:17:30.091Z,29.35
2017-05-17T07:18:42.604Z,29.55
2017-05-17T07:19:55.133Z,29.52
2017-05-17T07:21:07.682Z,29.8
2017-05-17T07:22:20.245Z,29.76
2017-05-17T07:23:32.766Z,29.71
2017-05-17T07:24:45.312Z,30.01
2017-05-17T07:25:57.537Z,30.1
2017-05-17T07:27:10.129Z,30.11
2017-05-17T07:28:22.683Z,30.21
2017-05-17T07:29:34.945Z,30.16
2017-05-17T07:30:47.187Z,30.36
2017-05-17T07:31:59.738Z,30.49
2017-05-17T07:33:12.305Z,30.69
2017-05-17T07:34:24.576Z,30.73
2017-05-17T07:35:37.179Z,31.05
2017-05-17T07:36:49.721Z,31.05
2017-05-17T07:38:02.289Z,31.17
2017-05-17T07:39:14.849Z,31.05
2017-05-17T07:40:27.434Z,31.17
2017-05-17T07:41:40.004Z,31.23
2017-05-17T07:42:52.555Z,31.35
2017-05-17T07:44:05.104Z,31.44
2017-05-17T07:45:17.040Z,31.26
2017-05-17T07:46:29.313Z,31.29
2017-05-17T07:47:41.856Z,31.3
2017-05-17T07:48:54.420Z,31.28
2017-05-17T07:50:06.983Z,31.37
2017-05-17T07:51:19.252Z,31.35
2017-05-17T07:52:31.825Z,31.44
2017-05-17T07:53:44.368Z,31.42
2017-05-17T07:54:56.636Z,31.37
2017-05-17T07:56:08.878Z,31.39
2017-05-17T07:57:21.431Z,31.35
2017-05-17T07:58:33.977Z,31.39
2017-05-17T07:59:46.214Z,31.57
2017-05-17T08:00:58.770Z,31.59
2017-05-17T08:02:11.311Z,31.74
2017-05-17T08:03:23.564Z,31.85
2017-05-17T08:04:36.124Z,31.95
2017-05-17T08:05:48.395Z,31.95
2017-05-17T08:07:00.973Z,32.15
2017-05-17T08:08:13.547Z,32
2017-05-17T08:09:25.817Z,32.16
2017-05-17T08:10:38.366Z,32.08
2017-05-17T08:11:50.911Z,32.17
2017-05-17T08:13:03.482Z,32.23
2017-05-17T08:14:16.045Z,32.27
2017-05-17T08:15:28.619Z,32.29
2017-05-17T08:16:41.183Z,32.34
2017-05-17T08:17:54.016Z,32.49
2017-05-17T08:19:06.287Z,32.49
2017-05-17T08:20:18.856Z,32.59
2017-05-17T08:21:31.405Z,32.61
2017-05-17T08:22:43.966Z,32.59
2017-05-17T08:23:56.238Z,32.57
2017-05-17T08:25:08.529Z,32.63
2017-05-17T08:26:21.058Z,32.53
2017-05-17T08:27:33.605Z,32.49
2017-05-17T08:28:45.900Z,32.42
2017-05-17T08:29:58.441Z,32.46
2017-05-17T08:31:10.409Z,32.26
2017-05-17T08:32:22.657Z,32.11
2017-05-17T08:33:34.929Z,31.93
2017-05-17T08:34:47.499Z,31.74
2017-05-17T08:36:00.067Z,31.59
2017-05-17T08:37:12.338Z,31.36
2017-05-17T08:38:24.867Z,31.32
2017-05-17T08:39:37.483Z,31.25
2017-05-17T08:40:49.754Z,31.08
2017-05-17T08:42:02.383Z,31.13
2017-05-17T08:43:14.353Z,30.91
2017-05-17T08:44:26.897Z,30.91
2017-05-17T08:45:39.160Z,30.77
2017-05-17T08:46:51.438Z,30.63
2017-05-17T08:48:03.988Z,30.33
2017-05-17T08:49:16.558Z,30.29
2017-05-17T08:50:29.147Z,30.23
2017-05-17T08:51:41.693Z,30.08
2017-05-17T08:52:54.247Z,30.11
2017-05-17T08:54:06.805Z,30.08
2017-05-17T08:55:19.052Z,30.03
2017-05-17T08:56:31.626Z,29.8
2017-05-17T08:57:44.265Z,29.83
2017-05-17T08:58:56.850Z,29.71
2017-05-17T09:00:09.142Z,29.74
2017-05-17T09:01:21.090Z,29.76
2017-05-17T09:02:33.603Z,29.86
2017-05-17T09:03:46.174Z,29.89
2017-05-17T09:04:58.748Z,29.95
2017-05-17T09:06:10.673Z,30.03
2017-05-17T09:07:23.211Z,30.03
2017-05-17T09:08:35.485Z,30.02
2017-05-17T09:09:47.828Z,30.01
2017-05-17T09:11:00.384Z,29.94
2017-05-17T09:12:12.379Z,30.03
2017-05-17T09:13:24.625Z,30.1
2017-05-17T09:14:37.168Z,30.11
2017-05-17T09:15:49.419Z,30.17
2017-05-17T09:17:01.382Z,30.35
2017-05-17T09:18:13.361Z,30.38
2017-05-17T09:19:25.933Z,30.4
2017-05-17T09:20:38.217Z,30.38
2017-05-17T09:21:50.788Z,30.51
2017-05-17T09:23:03.346Z,30.59
2017-05-17T09:24:15.329Z,30.62
2017-05-17T09:25:27.299Z,30.48
2017-05-17T09:26:39.570Z,30.46
2017-05-17T09:27:52.147Z,30.52
2017-05-17T09:29:04.696Z,30.4
2017-05-17T09:30:17.244Z,30.35
2017-05-17T09:31:29.830Z,30.31
2017-05-17T09:32:42.083Z,30.29
2017-05-17T09:33:54.654Z,30.27
2017-05-17T09:35:07.217Z,30.39
2017-05-17T09:36:19.771Z,30.39
2017-05-17T09:37:32.338Z,30.52
2017-05-17T09:38:44.904Z,30.55
2017-05-17T09:39:57.452Z,30.62
2017-05-17T09:41:09.697Z,30.74
2017-05-17T09:42:21.946Z,30.78
2017-05-17T09:43:34.217Z,30.89
2017-05-17T09:44:46.795Z,30.88
2017-05-17T09:45:59.362Z,30.91
2017-05-17T09:47:11.926Z,31.02
2017-05-17T09:48:24.184Z,31.05
2017-05-17T09:49:36.727Z,31.07
2017-05-17T09:50:49.299Z,31.18
2017-05-17T09:52:01.567Z,31.32
2017-05-17T09:53:13.521Z,31.47
2017-05-17T09:54:26.090Z,31.51
2017-05-17T09:55:38.648Z,31.5
2017-05-17T09:56:51.234Z,31.57
2017-05-17T09:58:03.522Z,31.55
2017-05-17T09:59:15.488Z,31.62
2017-05-17T10:00:28.060Z,31.54
2017-05-17T10:01:40.037Z,31.64
2017-05-17T10:02:51.987Z,31.74
2017-05-17T10:04:04.551Z,31.93
2017-05-17T10:05:16.802Z,31.93
2017-05-17T10:06:29.372Z,32.19
2017-05-17T10:07:41.957Z,32.39
2017-05-17T10:08:54.564Z,32.59
2017-05-17T10:10:06.810Z,32.64
2017-05-17T10:11:18.482Z,32.93
2017-05-17T10:12:31.065Z,33.03
2017-05-17T10:13:43.647Z,33.22
2017-05-17T10:14:56.210Z,33.42
2017-05-17T10:16:08.178Z,33.51
2017-05-17T10:17:20.149Z,33.77
2017-05-17T10:18:32.703Z,33.97
2017-05-17T10:19:45.269Z,34.21
2017-05-17T10:20:57.544Z,34.38
2017-05-17T10:22:09.787Z,34.53
2017-05-17T10:23:22.378Z,34.71
2017-05-17T10:24:34.660Z,35.01
2017-05-17T10:25:47.228Z,35.16
2017-05-17T10:26:59.769Z,35.37
2017-05-17T10:28:11.738Z,35.66
2017-05-17T10:29:24.275Z,35.76
2017-05-17T10:30:36.879Z,35.97
2017-05-17T10:31:49.414Z,36.01
2017-05-17T10:33:01.674Z,35.98
2017-05-17T10:34:14.225Z,36.13
2017-05-17T10:35:26.497Z,36.13
2017-05-17T10:36:39.061Z,36.25
2017-05-17T10:37:50.739Z,36.26
2017-05-17T10:39:03.308Z,36.43
2017-05-17T10:40:15.257Z,36.5
2017-05-17T10:41:27.851Z,36.5
2017-05-17T10:42:40.413Z,36.54
2017-05-17T10:43:52.671Z,36.62
2017-05-17T10:45:05.242Z,36.63
2017-05-17T10:46:17.534Z,36.78
2017-05-17T10:47:30.060Z,36.76
2017-05-17T10:48:42.351Z,36.8
2017-05-17T10:49:54.916Z,36.91
2017-05-17T10:51:07.485Z,36.96
2017-05-17T10:52:20.059Z,37.09
2017-05-17T10:53:32.639Z,37.09
2017-05-17T10:54:45.197Z,37.16
2017-05-17T10:55:57.472Z,37.23
2017-05-17T10:57:09.702Z,37.21
2017-05-17T10:58:21.988Z,37.21
2017-05-17T10:59:34.559Z,37.4
2017-05-17T11:00:46.802Z,37.54
2017-05-17T11:01:59.359Z,37.72
2017-05-17T11:03:11.927Z,37.75
2017-05-17T11:04:24.501Z,37.85
2017-05-17T11:05:37.046Z,38.02
2017-05-17T11:06:49.606Z,38.09
2017-05-17T11:08:02.188Z,38.2
2017-05-17T11:09:14.774Z,38.29
2017-05-17T11:10:27.320Z,38.2
2017-05-17T11:11:39.597Z,38.14
2017-05-17T11:12:51.562Z,38.13
2017-05-17T11:14:04.141Z,38.27
2017-05-17T11:15:16.103Z,38.34
2017-05-17T11:16:28.673Z,38.44
2017-05-17T11:17:41.281Z,38.53
2017-05-17T11:18:53.274Z,38.63
2017-05-17T11:20:05.823Z,38.65
2017-05-17T11:21:18.094Z,38.65
2017-05-17T11:22:30.682Z,38.65
2017-05-17T11:23:42.662Z,38.88
2017-05-17T11:24:54.907Z,39.04
2017-05-17T11:26:07.476Z,39.2
2017-05-17T11:27:19.474Z,39.34
2017-05-17T11:28:32.042Z,39.23
2017-05-17T11:29:44.641Z,39.11
2017-05-17T11:30:56.608Z,39.05
2017-05-17T11:32:08.857Z,39
2017-05-17T11:33:21.125Z,39.04
2017-05-17T11:34:33.695Z,39.12
2017-05-17T11:35:46.241Z,39.33
2017-05-17T11:36:58.779Z,39.46
2017-05-17T11:38:11.355Z,39.54
2017-05-17T11:39:23.921Z,39.49
2017-05-17T11:40:36.221Z,39.57
2017-05-17T11:41:48.766Z,39.71
2017-05-17T11:43:01.341Z,39.8
2017-05-17T11:44:13.292Z,39.88
2017-05-17T11:45:25.874Z,39.98
2017-05-17T11:46:38.159Z,40.01
2017-05-17T11:47:50.425Z,39.88
2017-05-17T11:49:02.989Z,39.66
2017-05-17T11:50:15.566Z,39.68
2017-05-17T11:51:27.814Z,39.67
2017-05-17T11:52:40.389Z,39.78
2017-05-17T11:53:52.930Z,39.71
2017-05-17T11:55:05.491Z,39.7
2017-05-17T11:56:17.774Z,39.66
2017-05-17T11:57:30.047Z,39.7
2017-05-17T11:58:42.316Z,39.73
2017-05-17T11:59:53.961Z,39.78
2017-05-17T12:01:06.548Z,39.66
2017-05-17T12:02:18.535Z,39.66
2017-05-17T12:03:30.794Z,39.49
2017-05-17T12:04:43.334Z,39.38
2017-05-17T12:05:55.363Z,39.38
2017-05-17T12:07:07.627Z,39.39
2017-05-17T12:08:19.898Z,39.6
2017-05-17T12:09:32.498Z,39.71
2017-05-17T12:10:45.047Z,39.6
2017-05-17T12:11:57.576Z,39.48
2017-05-17T12:13:10.145Z,39.48
2017-05-17T12:14:22.131Z,39.46
2017-05-17T12:15:34.681Z,39.3
2017-05-17T12:16:47.249Z,39.39
2017-05-17T12:17:59.516Z,39.11
2017-05-17T12:19:12.087Z,38.87
2017-05-17T12:20:24.644Z,38.65
2017-05-17T12:21:37.210Z,38.39
2017-05-17T12:22:49.806Z,38.36
2017-05-17T12:24:01.753Z,38.36
2017-05-17T12:25:13.727Z,38.35
2017-05-17T12:26:25.711Z,38.48
2017-05-17T12:27:38.258Z,38.47
2017-05-17T12:28:50.832Z,38.36
2017-05-17T12:30:03.409Z,38.22
2017-05-17T12:31:15.433Z,38.2
2017-05-17T12:32:27.725Z,38.23
2017-05-17T12:33:40.275Z,38.31
2017-05-17T12:34:52.845Z,38.19
2017-05-17T12:36:04.861Z,38.05
2017-05-17T12:37:17.439Z,38.12
2017-05-17T12:38:30.249Z,38.04
2017-05-17T12:39:42.506Z,38.05
2017-05-17T12:40:55.098Z,37.88
2017-05-17T12:42:07.690Z,38.02
2017-05-17T12:43:19.715Z,38.05
2017-05-17T12:44:32.301Z,38.09
2017-05-17T12:45:44.881Z,38.13
2017-05-17T12:46:57.126Z,38.2
2017-05-17T12:48:09.716Z,38.36
2017-05-17T12:49:21.964Z,38.5
2017-05-17T12:50:34.508Z,38.53
2017-05-17T12:51:47.105Z,38.65
2017-05-17T12:52:59.659Z,38.6
2017-05-17T12:54:11.625Z,38.66
2017-05-17T12:55:23.887Z,38.68
2017-05-17T12:56:36.118Z,38.75
2017-05-17T12:57:48.360Z,38.95
2017-05-17T12:59:00.938Z,39.04
2017-05-17T13:00:13.197Z,39.04
2017-05-17T13:01:25.755Z,39.19
2017-05-17T13:02:38.322Z,39.05
2017-05-17T13:03:50.589Z,38.95
2017-05-17T13:05:02.564Z,38.95
2017-05-17T13:06:15.126Z,39.08
2017-05-17T13:07:27.401Z,39.01
2017-05-17T13:08:39.356Z,38.91
2017-05-17T13:09:51.923Z,38.96
2017-05-17T13:11:04.493Z,39.03
2017-05-17T13:12:16.464Z,39.12
2017-05-17T13:13:29.040Z,38.87
2017-05-17T13:14:41.602Z,38.85
2017-05-17T13:15:54.171Z,38.54
2017-05-17T13:17:06.727Z,38.38
2017-05-17T13:18:18.989Z,38.2
2017-05-17T13:19:31.539Z,38.05
2017-05-17T13:20:44.086Z,37.8
2017-05-17T13:21:56.354Z,37.66
2017-05-17T13:23:08.630Z,37.63
2017-05-17T13:24:21.194Z,37.66
2017-05-17T13:25:33.761Z,37.68
2017-05-17T13:26:46.343Z,37.45
2017-05-17T13:27:58.591Z,37.53
2017-05-17T13:29:11.158Z,37.37
2017-05-17T13:30:23.700Z,37.31
2017-05-17T13:31:36.280Z,37.36
2017-05-17T13:32:48.849Z,37.41
2017-05-17T13:34:01.136Z,37.36
2017-05-17T13:35:13.706Z,37.21
2017-05-17T13:36:25.957Z,37.1
2017-05-17T13:37:38.507Z,36.87
2017-05-17T13:38:51.318Z,36.97
2017-05-17T13:40:03.888Z,36.72
2017-05-17T13:41:16.466Z,36.75
2017-05-17T13:42:28.461Z,36.7
2017-05-17T13:43:41.028Z,36.66
2017-05-17T13:44:53.004Z,36.73
2017-05-17T13:46:05.569Z,36.69
2017-05-17T13:47:18.137Z,36.72
2017-05-17T13:48:30.698Z,36.78
2017-05-17T13:49:43.255Z,36.78
2017-05-17T13:50:55.799Z,36.8
2017-05-17T13:52:08.046Z,36.87
2017-05-17T13:53:20.604Z,36.75
2017-05-17T13:54:33.189Z,36.75
2017-05-17T13:55:45.459Z,36.81
2017-05-17T13:56:58.037Z,36.8
2017-05-17T13:58:10.005Z,36.96
2017-05-17T13:59:22.571Z,36.75
2017-05-17T14:00:34.843Z,36.75
2017-05-17T14:01:47.392Z,36.75
2017-05-17T14:02:59.642Z,36.76
2017-05-17T14:04:11.905Z,36.72
2017-05-17T14:05:24.184Z,36.53
2017-05-17T14:06:36.407Z,36.25
2017-05-17T14:07:48.671Z,36.26
2017-05-17T14:09:00.966Z,36.18
2017-05-17T14:10:13.238Z,36.24
2017-05-17T14:11:25.790Z,36.29
2017-05-17T14:12:38.352Z,36.14
2017-05-17T14:13:50.630Z,36.16
2017-05-17T14:15:02.894Z,35.97
2017-05-17T14:16:15.165Z,35.81
2017-05-17T14:17:27.146Z,35.84
2017-05-17T14:18:39.435Z,35.91
2017-05-17T14:19:52.014Z,35.98
2017-05-17T14:21:04.586Z,35.87
2017-05-17T14:22:16.845Z,35.54
2017-05-17T14:23:29.390Z,35.39
2017-05-17T14:24:41.936Z,35.19
2017-05-17T14:25:54.568Z,35.13
2017-05-17T14:27:07.156Z,34.89
2017-05-17T14:28:19.708Z,34.79
2017-05-17T14:29:32.001Z,34.76
2017-05-17T14:30:44.244Z,34.73
2017-05-17T14:31:56.787Z,34.48
2017-05-17T14:33:08.757Z,34.19
2017-05-17T14:34:21.087Z,33.98
2017-05-17T14:35:33.632Z,33.87
2017-05-17T14:36:45.899Z,33.76
2017-05-17T14:37:58.745Z,33.63
2017-05-17T14:39:11.314Z,33.55
2017-05-17T14:40:23.886Z,33.53
2017-05-17T14:41:36.436Z,33.22
2017-05-17T14:42:49.000Z,33.04
2017-05-17T14:44:01.571Z,32.63
2017-05-17T14:45:14.121Z,32.54
2017-05-17T14:46:26.670Z,32.27
2017-05-17T14:47:38.912Z,32.16
2017-05-17T14:48:51.487Z,31.81
2017-05-17T14:50:03.726Z,31.73
2017-05-17T14:51:15.949Z,31.55
2017-05-17T14:52:28.517Z,31.42
2017-05-17T14:53:41.113Z,31.28
2017-05-17T14:54:53.072Z,31.08
2017-05-17T14:56:05.637Z,30.96
2017-05-17T14:57:17.576Z,30.46
2017-05-17T14:58:30.122Z,30.26
2017-05-17T14:59:42.697Z,30.16
2017-05-17T15:00:55.241Z,30.05
2017-05-17T15:02:07.484Z,29.9
2017-05-17T15:03:19.434Z,29.8
2017-05-17T15:04:31.962Z,29.73
2017-05-17T15:05:44.225Z,29.57
2017-05-17T15:06:56.480Z,29.42
2017-05-17T15:08:09.014Z,29.37
2017-05-17T15:09:21.251Z,29.16
2017-05-17T15:10:33.191Z,29.09
2017-05-17T15:11:45.752Z,29
2017-05-17T15:12:58.297Z,28.82
2017-05-17T15:14:10.847Z,28.8
2017-05-17T15:15:23.401Z,28.59
2017-05-17T15:16:35.971Z,28.65
2017-05-17T15:17:48.207Z,28.62
2017-05-17T15:19:00.788Z,28.43
2017-05-17T15:20:12.760Z,28.41
2017-05-17T15:21:25.320Z,28.35
2017-05-17T15:22:37.550Z,28.22
2017-05-17T15:23:50.089Z,28.16
2017-05-17T15:25:02.639Z,28.08
2017-05-17T15:26:14.880Z,28
2017-05-17T15:27:27.123Z,27.86
2017-05-17T15:28:39.399Z,27.83
2017-05-17T15:29:51.976Z,27.78
2017-05-17T15:31:04.540Z,27.79
2017-05-17T15:32:16.789Z,27.66
2017-05-17T15:33:29.358Z,27.55
2017-05-17T15:34:41.903Z,27.48
2017-05-17T15:35:54.453Z,27.4